createdAt,value
2023-01-10T00:03:35.886Z,1006.2
2023-01-10T00:08:42.378Z,1006.3
2023-01-10T00:14:12.798Z,1006.4
2023-01-10T00:18:55.248Z,1006.6
2023-01-10T00:24:01.616Z,1006.6
2023-01-10T00:29:15.610Z,1006.7
2023-01-10T00:34:17.987Z,1006.8
2023-01-10T00:40:05.475Z,1006.9
2023-01-10T00:45:12.894Z,1006.9
2023-01-10T00:50:19.279Z,1007.0
2023-01-10T00:55:25.675Z,1007.2
2023-01-10T01:00:31.996Z,1007.3
2023-01-10T01:05:38.408Z,1007.4
2023-01-10T01:10:44.951Z,1007.5
2023-01-10T01:15:51.463Z,1007.7
2023-01-10T01:20:57.823Z,1007.8
2023-01-10T01:26:28.367Z,1007.8
2023-01-10T01:31:10.783Z,1007.9
2023-01-10T01:36:31.173Z,1008.0
2023-01-10T01:41:23.518Z,1008.0
2023-01-10T01:46:29.919Z,1008.1
2023-01-10T01:51:56.329Z,1008.1
2023-01-10T01:56:42.652Z,1008.3
2023-01-10T02:01:49.087Z,1008.3
2023-01-10T02:06:55.457Z,1008.4
2023-01-10T02:12:01.864Z,1008.4
2023-01-10T02:17:28.263Z,1008.4
2023-01-10T02:22:34.663Z,1008.5
2023-01-10T02:27:21.256Z,1008.7
2023-01-10T02:32:42.199Z,1008.6
2023-01-10T02:37:32.958Z,1008.5
2023-01-10T02:42:40.432Z,1008.7
2023-01-10T02:47:46.758Z,1008.6
2023-01-10T02:52:53.176Z,1008.7
2023-01-10T02:57:59.583Z,1008.6
2023-01-10T03:03:09.954Z,1008.7
2023-01-10T03:08:12.313Z,1008.8
2023-01-10T03:13:18.734Z,1008.9
2023-01-10T03:18:25.096Z,1008.9
2023-01-10T03:23:31.475Z,1009.0
2023-01-10T03:29:01.911Z,1009.0
2023-01-10T03:33:44.240Z,1009.3
2023-01-10T03:38:50.583Z,1009.3
2023-01-10T03:43:56.966Z,1009.4
2023-01-10T03:49:03.369Z,1009.5
2023-01-10T03:54:29.804Z,1009.5
2023-01-10T03:59:16.292Z,1009.5
2023-01-10T04:04:36.777Z,1009.7
2023-01-10T04:09:29.122Z,1009.7
2023-01-10T04:14:39.543Z,1009.8
2023-01-10T04:20:06.011Z,1009.8
2023-01-10T04:24:48.319Z,1009.9
2023-01-10T04:29:54.737Z,1009.9
2023-01-10T04:35:01.120Z,1010.0
2023-01-10T04:40:07.541Z,1010.0
2023-01-10T04:45:13.909Z,1009.8
2023-01-10T04:50:20.296Z,1009.9
2023-01-10T04:55:26.831Z,1010.0
2023-01-10T05:01:00.835Z,1010.1
2023-01-10T05:05:43.131Z,1010.1
2023-01-10T05:11:10.021Z,1010.1
2023-01-10T05:15:56.355Z,1010.2
2023-01-10T05:21:02.752Z,1010.4
2023-01-10T05:31:55.075Z,1010.5
2023-01-10T05:37:02.948Z,1010.7
2023-01-10T05:42:29.334Z,1010.6
2023-01-10T05:47:15.740Z,1010.9
2023-01-10T05:52:22.105Z,1010.9
2023-01-10T05:57:30.074Z,1011.0
2023-01-10T06:02:36.605Z,1011.1
2023-01-10T06:07:43.007Z,1011.1
2023-01-10T06:12:49.389Z,1011.2
2023-01-10T06:17:57.392Z,1011.2
2023-01-10T06:23:03.760Z,1011.2
2023-01-10T06:28:10.152Z,1011.3
2023-01-10T06:33:16.606Z,1011.4
2023-01-10T06:38:24.466Z,1011.6
2023-01-10T06:43:30.856Z,1011.7
2023-01-10T06:48:37.250Z,1011.7
2023-01-10T06:53:43.647Z,1011.7
2023-01-10T06:58:51.619Z,1011.9
2023-01-10T07:03:58.025Z,1011.7
2023-01-10T07:09:07.928Z,1011.8
2023-01-10T07:14:14.306Z,1011.8
2023-01-10T07:19:10.692Z,1012.0
2023-01-10T07:24:27.069Z,1012.1
2023-01-10T07:29:59.085Z,1012.3
2023-01-10T07:34:41.446Z,1012.4
2023-01-10T07:39:47.833Z,1012.2
2023-01-10T07:44:54.321Z,1012.3
2023-01-10T07:50:06.308Z,1012.5
2023-01-10T07:55:08.675Z,1012.6
2023-01-10T08:00:40.671Z,1012.6
2023-01-10T08:05:23.025Z,1012.7
2023-01-10T08:10:29.378Z,1012.7
2023-01-10T08:15:25.773Z,1012.7
2023-01-10T08:21:16.265Z,1012.8
2023-01-10T08:26:23.603Z,1012.8
2023-01-10T08:31:30.086Z,1012.8
2023-01-10T08:36:36.400Z,1012.8
2023-01-10T08:41:42.751Z,1012.8
2023-01-10T08:46:49.575Z,1012.9
2023-01-10T08:51:55.940Z,1012.8
2023-01-10T08:58:14.456Z,1012.8
2023-01-10T09:02:08.842Z,1012.9
2023-01-10T09:07:15.193Z,1013.0
2023-01-10T09:12:21.533Z,1013.0
2023-01-10T09:18:01.996Z,1012.9
2023-01-10T09:23:29.435Z,1013.0
2023-01-10T09:28:39.813Z,1013.0
2023-01-10T09:33:22.137Z,1013.2
2023-01-10T09:38:28.583Z,1013.2
2023-01-10T09:43:35.093Z,1013.3
2023-01-10T09:48:41.445Z,1013.2
2023-01-10T09:53:47.833Z,1013.2
2023-01-10T09:58:44.244Z,1013.4
2023-01-10T10:04:00.699Z,1013.3
2023-01-10T10:08:56.965Z,1013.2
2023-01-10T10:14:13.386Z,1013.1
2023-01-10T10:19:19.802Z,1013.1
2023-01-10T10:24:16.349Z,1013.1
2023-01-10T10:29:32.960Z,1013.1
2023-01-10T10:34:29.372Z,1013.1
2023-01-10T10:39:45.717Z,1013.1
2023-01-10T10:44:52.142Z,1013.0
2023-01-10T10:50:02.508Z,1013.0
2023-01-10T10:55:04.880Z,1012.9
2023-01-10T11:00:14.942Z,1012.8
2023-01-10T11:05:21.505Z,1012.8
2023-01-10T11:10:27.921Z,1012.8
2023-01-10T11:15:34.539Z,1012.8
2023-01-10T11:20:40.884Z,1012.8
2023-01-10T11:25:47.293Z,1012.8
2023-01-10T11:30:53.682Z,1012.8
2023-01-10T11:36:00.051Z,1012.9
2023-01-10T11:41:06.430Z,1012.8
2023-01-10T11:46:13.483Z,1012.8
2023-01-10T11:51:19.810Z,1012.7
2023-01-10T11:56:26.305Z,1012.7
2023-01-10T12:01:32.795Z,1012.7
2023-01-10T12:06:39.083Z,1012.7
2023-01-10T12:11:45.463Z,1012.6
2023-01-10T12:17:15.923Z,1012.6
2023-01-10T12:21:58.246Z,1012.7
2023-01-10T12:28:16.794Z,1012.8
2023-01-10T12:32:11.017Z,1012.8
2023-01-10T12:37:17.514Z,1012.6
2023-01-10T12:42:51.937Z,1012.3
2023-01-10T12:47:30.349Z,1012.3
2023-01-10T12:52:56.685Z,1012.3
2023-01-10T12:58:03.047Z,1012.3
2023-01-10T13:02:49.477Z,1012.2
2023-01-10T13:07:55.886Z,1012.0
2023-01-10T13:12:52.341Z,1012.0
2023-01-10T13:18:08.687Z,1011.9
2023-01-10T13:23:39.091Z,1011.9
2023-01-10T13:28:11.470Z,1011.8
2023-01-10T13:33:27.831Z,1011.8
2023-01-10T13:38:34.195Z,1011.7
2023-01-10T13:43:40.599Z,1011.8
2023-01-10T13:48:36.937Z,1011.7
2023-01-10T13:54:13.338Z,1011.5
2023-01-10T13:58:59.893Z,1011.5
2023-01-10T14:04:06.433Z,1011.4
2023-01-10T14:09:12.817Z,1011.3
2023-01-10T14:14:19.229Z,1011.3
2023-01-10T14:19:25.575Z,1011.2
2023-01-10T14:24:31.962Z,1011.0
2023-01-10T14:29:38.371Z,1011.0
2023-01-10T14:34:44.746Z,1011.0
2023-01-10T14:39:51.112Z,1010.9
2023-01-10T14:45:25.594Z,1010.7
2023-01-10T14:50:37.964Z,1010.7
2023-01-10T14:55:46.476Z,1010.6
2023-01-10T15:00:42.952Z,1010.6
2023-01-10T15:06:13.367Z,1010.4
2023-01-10T15:11:05.748Z,1010.4
2023-01-10T15:16:46.266Z,1010.4
2023-01-10T15:21:53.579Z,1010.3
2023-01-10T15:27:01.542Z,1010.2
2023-01-10T15:32:07.944Z,1010.2
2023-01-10T15:37:50.382Z,1010.0
2023-01-10T15:43:17.849Z,1010.0
2023-01-10T15:48:04.755Z,1009.9
2023-01-10T15:53:11.161Z,1009.8
2023-01-10T15:58:06.524Z,1009.8
2023-01-10T16:03:47.145Z,1009.8
2023-01-10T16:08:30.349Z,1009.6
2023-01-10T16:13:36.737Z,1009.5
2023-01-10T16:18:43.110Z,1009.6
2023-01-10T16:23:49.522Z,1009.5
2023-01-10T16:28:55.890Z,1009.3
2023-01-10T16:33:52.415Z,1009.2
2023-01-10T16:39:08.875Z,1009.2
2023-01-10T16:44:35.266Z,1009.2
2023-01-10T16:49:21.626Z,1009.1
2023-01-10T16:54:28.026Z,1009.2
2023-01-10T16:59:34.433Z,1008.9
2023-01-10T17:04:40.954Z,1008.9
2023-01-10T17:11:09.526Z,1008.6
2023-01-10T17:16:19.673Z,1008.5
2023-01-10T17:21:23.997Z,1008.3
2023-01-10T17:26:30.465Z,1008.2
2023-01-10T17:31:36.881Z,1007.9
2023-01-10T17:36:46.789Z,1007.8
2023-01-10T17:41:53.220Z,1007.9
2023-01-10T17:46:59.565Z,1007.6
2023-01-10T17:52:05.992Z,1007.6
2023-01-10T17:57:17.252Z,1007.7
2023-01-10T18:02:18.889Z,1007.5
2023-01-10T18:07:50.122Z,1007.5
2023-01-10T18:12:32.553Z,1007.3
2023-01-10T18:17:59.083Z,1007.2
2023-01-10T18:22:45.485Z,1007.2
2023-01-10T18:28:40.128Z,1007.0
2023-01-10T18:33:32.358Z,1006.7
2023-01-10T18:39:38.064Z,1006.8
2023-01-10T18:44:25.463Z,1006.7
2023-01-10T18:49:31.868Z,1007.0
2023-01-10T18:54:38.309Z,1007.0
2023-01-10T18:59:34.693Z,1006.7
2023-01-10T19:04:51.064Z,1006.8
2023-01-10T19:10:55.065Z,1006.7
2023-01-10T19:20:51.925Z,1006.4
2023-01-10T19:25:58.280Z,1006.4
2023-01-10T19:31:05.437Z,1006.2
2023-01-10T19:36:45.287Z,1006.3
2023-01-10T19:41:42.635Z,1006.0
2023-01-10T19:46:59.022Z,1006.0
2023-01-10T19:52:05.440Z,1006.0
2023-01-10T19:57:11.823Z,1005.9
2023-01-10T20:02:18.188Z,1005.9
2023-01-10T20:07:24.675Z,1005.8
2023-01-10T20:12:35.035Z,1005.7
2023-01-10T20:17:37.430Z,1005.7
2023-01-10T20:22:42.803Z,1005.6
2023-01-10T20:27:40.147Z,1005.6
2023-01-10T20:32:56.647Z,1005.6
2023-01-10T20:38:37.142Z,1005.4
2023-01-10T20:43:44.536Z,1005.3
2023-01-10T20:49:25.013Z,1005.3
2023-01-10T20:54:32.468Z,1005.3
2023-01-10T20:59:38.836Z,1005.3
2023-01-10T21:04:45.191Z,1005.2
2023-01-10T21:09:51.628Z,1005.1
2023-01-10T21:14:57.969Z,1005.3
2023-01-10T21:20:04.373Z,1005.2
2023-01-10T21:25:10.755Z,1005.1
2023-01-10T21:30:17.117Z,1005.2
2023-01-10T21:35:23.609Z,1005.0
2023-01-10T21:40:30.053Z,1004.8
2023-01-10T21:45:36.524Z,1004.8
2023-01-10T21:50:42.952Z,1004.7
2023-01-10T22:00:55.776Z,1004.5
2023-01-10T22:06:02.126Z,1004.6
2023-01-10T22:11:10.588Z,1004.4
2023-01-10T22:16:14.901Z,1004.5
2023-01-10T22:21:21.237Z,1004.3
2023-01-10T22:26:26.622Z,1004.4
2023-01-10T22:31:34.077Z,1004.2
2023-01-10T22:36:40.376Z,1004.3
2023-01-10T22:41:46.763Z,1004.3
2023-01-10T22:46:54.750Z,1004.1
2023-01-10T22:52:21.135Z,1004.1
2023-01-10T22:57:06.462Z,1004.1
2023-01-10T23:02:13.899Z,1004.0
2023-01-10T23:07:20.225Z,1003.9
2023-01-10T23:12:26.769Z,1003.8
2023-01-10T23:17:33.199Z,1003.8
2023-01-10T23:22:39.640Z,1003.8
2023-01-10T23:27:47.822Z,1003.7
2023-01-10T23:32:54.225Z,1003.6
2023-01-10T23:38:00.603Z,1003.6
2023-01-10T23:43:06.980Z,1003.4
2023-01-10T23:48:13.444Z,1003.4
2023-01-10T23:53:19.759Z,1003.4
2023-01-10T23:58:26.288Z,1003.4
